sensor_id;sensor_type;location;lat;lon;timestamp;pressure;altitude;pressure_sealevel;temperature;humidity
17025;BME280;8629;42.496;25.620;2024-03-06T00:02:23;96195.00;;;6.62;79.90
17025;BME280;8629;42.496;25.620;2024-03-06T00:04:51;96142.78;;;6.28;79.48
17025;BME280;8629;42.496;25.620;2024-03-06T00:07:19;96189.44;;;6.69;78.88
17025;BME280;8629;42.496;25.620;2024-03-06T00:09:46;96176.22;;;6.69;79.04
17025;BME280;8629;42.496;25.620;2024-03-06T00:12:13;96188.94;;;6.56;79.42
17025;BME280;8629;42.496;25.620;2024-03-06T00:14:40;96180.47;;;6.65;78.64
17025;BME280;8629;42.496;25.620;2024-03-06T00:17:07;96182.56;;;6.68;79.26
17025;BME280;8629;42.496;25.620;2024-03-06T00:19:34;96178.13;;;6.43;80.26
17025;BME280;8629;42.496;25.620;2024-03-06T00:22:03;96173.19;;;6.21;80.91
17025;BME280;8629;42.496;25.620;2024-03-06T00:24:30;96185.03;;;6.38;81.02
17025;BME280;8629;42.496;25.620;2024-03-06T00:26:57;96181.31;;;6.45;80.69
17025;BME280;8629;42.496;25.620;2024-03-06T00:29:24;96180.28;;;6.30;81.49
17025;BME280;8629;42.496;25.620;2024-03-06T00:31:51;96177.41;;;6.27;81.50
17025;BME280;8629;42.496;25.620;2024-03-06T00:34:18;96138.84;;;6.16;81.32
17025;BME280;8629;42.496;25.620;2024-03-06T00:36:44;96171.06;;;6.23;81.52
17025;BME280;8629;42.496;25.620;2024-03-06T00:39:13;96177.13;;;6.23;82.09
17025;BME280;8629;42.496;25.620;2024-03-06T00:41:40;96180.59;;;6.24;80.74
17025;BME280;8629;42.496;25.620;2024-03-06T00:44:07;96195.38;;;6.30;80.28
17025;BME280;8629;42.496;25.620;2024-03-06T00:46:34;96168.44;;;6.18;80.00
17025;BME280;8629;42.496;25.620;2024-03-06T00:49:01;96184.25;;;6.43;80.03
17025;BME280;8629;42.496;25.620;2024-03-06T00:51:28;96192.47;;;6.26;80.20
17025;BME280;8629;42.496;25.620;2024-03-06T00:53:54;96188.53;;;6.24;80.86
17025;BME280;8629;42.496;25.620;2024-03-06T00:56:23;96187.16;;;6.36;80.50
17025;BME280;8629;42.496;25.620;2024-03-06T00:58:50;96189.28;;;6.40;80.45
17025;BME280;8629;42.496;25.620;2024-03-06T01:01:17;96206.44;;;6.42;80.52
17025;BME280;8629;42.496;25.620;2024-03-06T01:03:44;96188.47;;;6.34;81.07
17025;BME280;8629;42.496;25.620;2024-03-06T01:06:11;96189.28;;;6.40;81.28
17025;BME280;8629;42.496;25.620;2024-03-06T01:08:37;96185.88;;;6.19;81.99
17025;BME280;8629;42.496;25.620;2024-03-06T01:11:04;96165.56;;;6.09;82.40
17025;BME280;8629;42.496;25.620;2024-03-06T01:13:33;96178.47;;;6.26;82.31
17025;BME280;8629;42.496;25.620;2024-03-06T01:16:01;96113.25;;;5.96;82.22
17025;BME280;8629;42.496;25.620;2024-03-06T01:18:27;96177.91;;;6.39;82.33
17025;BME280;8629;42.496;25.620;2024-03-06T01:20:54;96186.88;;;6.48;82.00
17025;BME280;8629;42.496;25.620;2024-03-06T01:23:21;96184.78;;;6.40;82.51
17025;BME280;8629;42.496;25.620;2024-03-06T01:25:48;96156.28;;;6.22;82.07
17025;BME280;8629;42.496;25.620;2024-03-06T01:28:15;96188.94;;;6.56;81.67
17025;BME280;8629;42.496;25.620;2024-03-06T01:30:43;96135.66;;;6.19;81.87
17025;BME280;8629;42.496;25.620;2024-03-06T01:33:10;96197.94;;;6.60;81.16
17025;BME280;8629;42.496;25.620;2024-03-06T01:35:39;96220.66;;;6.67;81.07
17025;BME280;8629;42.496;25.620;2024-03-06T01:38:06;96202.91;;;6.72;80.64
17025;BME280;8629;42.496;25.620;2024-03-06T01:40:34;96203.44;;;6.69;80.11
17025;BME280;8629;42.496;25.620;2024-03-06T01:43:01;96214.84;;;6.59;80.24
17025;BME280;8629;42.496;25.620;2024-03-06T01:45:28;96189.78;;;6.42;80.22
17025;BME280;8629;42.496;25.620;2024-03-06T01:47:57;96215.38;;;6.56;79.83
17025;BME280;8629;42.496;25.620;2024-03-06T01:50:24;96221.97;;;6.64;80.19
17025;BME280;8629;42.496;25.620;2024-03-06T01:52:51;96224.91;;;6.57;80.16
17025;BME280;8629;42.496;25.620;2024-03-06T01:55:18;96227.56;;;6.63;80.02
17025;BME280;8629;42.496;25.620;2024-03-06T01:57:45;96228.84;;;6.65;79.72
17025;BME280;8629;42.496;25.620;2024-03-06T02:00:13;96224.38;;;6.60;79.91
17025;BME280;8629;42.496;25.620;2024-03-06T02:02:42;96231.25;;;6.56;79.87
17025;BME280;8629;42.496;25.620;2024-03-06T02:05:10;96230.97;;;6.58;79.95
17025;BME280;8629;42.496;25.620;2024-03-06T02:07:38;96232.56;;;6.54;79.91
17025;BME280;8629;42.496;25.620;2024-03-06T02:10:07;96238.41;;;6.51;79.81
17025;BME280;8629;42.496;25.620;2024-03-06T02:12:35;96228.88;;;6.60;79.21
17025;BME280;8629;42.496;25.620;2024-03-06T02:15:02;96237.09;;;6.58;79.53
17025;BME280;8629;42.496;25.620;2024-03-06T02:17:29;96209.13;;;6.32;79.80
17025;BME280;8629;42.496;25.620;2024-03-06T02:19:56;96217.59;;;6.13;80.00
17025;BME280;8629;42.496;25.620;2024-03-06T02:22:26;96237.66;;;6.35;79.93
17025;BME280;8629;42.496;25.620;2024-03-06T02:24:52;96238.72;;;6.24;80.31
17025;BME280;8629;42.496;25.620;2024-03-06T02:27:19;96231.78;;;6.58;79.19
17025;BME280;8629;42.496;25.620;2024-03-06T02:29:46;96240.47;;;6.69;78.24
17025;BME280;8629;42.496;25.620;2024-03-06T02:32:13;96228.91;;;6.55;77.72
17025;BME280;8629;42.496;25.620;2024-03-06T02:34:40;96242.16;;;6.29;79.12
17025;BME280;8629;42.496;25.620;2024-03-06T02:37:07;96227.63;;;6.22;79.85
17025;BME280;8629;42.496;25.620;2024-03-06T02:39:35;96241.09;;;6.35;79.51
17025;BME280;8629;42.496;25.620;2024-03-06T02:42:04;96246.38;;;6.35;79.55
17025;BME280;8629;42.496;25.620;2024-03-06T02:44:30;96244.53;;;6.21;79.39
17025;BME280;8629;42.496;25.620;2024-03-06T02:46:57;96239.00;;;6.27;79.90
17025;BME280;8629;42.496;25.620;2024-03-06T02:49:24;96226.81;;;6.26;79.46
17025;BME280;8629;42.496;25.620;2024-03-06T02:51:50;96209.38;;;6.35;78.04
17025;BME280;8629;42.496;25.620;2024-03-06T02:54:17;96244.50;;;6.51;78.55
17025;BME280;8629;42.496;25.620;2024-03-06T02:56:46;96222.59;;;6.25;78.50
17025;BME280;8629;42.496;25.620;2024-03-06T02:59:12;96239.78;;;6.28;78.87
17025;BME280;8629;42.496;25.620;2024-03-06T03:01:39;96244.81;;;6.14;78.95
17025;BME280;8629;42.496;25.620;2024-03-06T03:04:06;96246.69;;;6.08;79.68
17025;BME280;8629;42.496;25.620;2024-03-06T03:06:33;96250.34;;;6.18;79.43
17025;BME280;8629;42.496;25.620;2024-03-06T03:09:00;96258.00;;;6.04;79.80
17025;BME280;8629;42.496;25.620;2024-03-06T03:11:26;96264.63;;;6.06;78.73
17025;BME280;8629;42.496;25.620;2024-03-06T03:13:54;96219.97;;;5.89;79.31
17025;BME280;8629;42.496;25.620;2024-03-06T03:16:22;96235.56;;;5.86;80.13
17025;BME280;8629;42.496;25.620;2024-03-06T03:18:49;96252.22;;;5.97;80.36
17025;BME280;8629;42.496;25.620;2024-03-06T03:21:16;96244.28;;;6.17;78.99
17025;BME280;8629;42.496;25.620;2024-03-06T03:23:43;96249.56;;;6.07;79.56
17025;BME280;8629;42.496;25.620;2024-03-06T03:26:09;96203.84;;;5.76;79.32
17025;BME280;8629;42.496;25.620;2024-03-06T03:28:37;96195.41;;;5.74;79.24
17025;BME280;8629;42.496;25.620;2024-03-06T03:31:07;96246.41;;;5.95;79.49
17025;BME280;8629;42.496;25.620;2024-03-06T03:33:34;96256.47;;;5.93;79.10
17025;BME280;8629;42.496;25.620;2024-03-06T03:36:04;96255.34;;;5.78;79.33
17025;BME280;8629;42.496;25.620;2024-03-06T03:38:32;96255.41;;;5.94;78.50
17025;BME280;8629;42.496;25.620;2024-03-06T03:41:01;96155.78;;;5.33;78.28
17025;BME280;8629;42.496;25.620;2024-03-06T03:43:29;96252.97;;;5.77;79.23
17025;BME280;8629;42.496;25.620;2024-03-06T03:45:56;96263.25;;;5.68;79.87
17025;BME280;8629;42.496;25.620;2024-03-06T03:48:24;96234.69;;;5.29;78.95
17025;BME280;8629;42.496;25.620;2024-03-06T03:50:51;96268.78;;;5.51;79.58
17025;BME280;8629;42.496;25.620;2024-03-06T03:53:18;96278.78;;;5.39;79.58
17025;BME280;8629;42.496;25.620;2024-03-06T03:55:45;96275.13;;;5.60;78.83
17025;BME280;8629;42.496;25.620;2024-03-06T03:58:12;96284.06;;;5.49;78.81
17025;BME280;8629;42.496;25.620;2024-03-06T04:00:38;96278.19;;;5.11;79.84
17025;BME280;8629;42.496;25.620;2024-03-06T04:03:05;96287.22;;;5.31;79.93
17025;BME280;8629;42.496;25.620;2024-03-06T04:05:33;96293.47;;;5.14;80.03
17025;BME280;8629;42.496;25.620;2024-03-06T04:08:00;96297.72;;;5.26;80.09
17025;BME280;8629;42.496;25.620;2024-03-06T04:10:27;96293.47;;;5.09;79.90
17025;BME280;8629;42.496;25.620;2024-03-06T04:12:54;96296.97;;;5.35;79.98
17025;BME280;8629;42.496;25.620;2024-03-06T04:15:20;96299.28;;;5.17;79.62
17025;BME280;8629;42.496;25.620;2024-03-06T04:17:47;96280.31;;;5.20;79.66
17025;BME280;8629;42.496;25.620;2024-03-06T04:20:14;96274.53;;;5.23;78.30
17025;BME280;8629;42.496;25.620;2024-03-06T04:22:43;96268.22;;;4.66;81.49
17025;BME280;8629;42.496;25.620;2024-03-06T04:25:11;96307.66;;;5.03;81.29
17025;BME280;8629;42.496;25.620;2024-03-06T04:27:38;96301.34;;;5.04;80.45
17025;BME280;8629;42.496;25.620;2024-03-06T04:30:06;96302.19;;;5.15;80.16
17025;BME280;8629;42.496;25.620;2024-03-06T04:32:33;96309.91;;;5.32;80.06
17025;BME280;8629;42.496;25.620;2024-03-06T04:35:00;96282.09;;;5.04;80.35
17025;BME280;8629;42.496;25.620;2024-03-06T04:37:27;96278.34;;;4.89;81.63
17025;BME280;8629;42.496;25.620;2024-03-06T04:39:56;96269.56;;;4.69;81.68
17025;BME280;8629;42.496;25.620;2024-03-06T04:42:23;96317.38;;;4.93;81.21
17025;BME280;8629;42.496;25.620;2024-03-06T04:44:50;96310.31;;;5.03;81.04
17025;BME280;8629;42.496;25.620;2024-03-06T04:47:16;96274.56;;;4.70;80.79
17025;BME280;8629;42.496;25.620;2024-03-06T04:49:44;96299.91;;;4.76;81.56
17025;BME280;8629;42.496;25.620;2024-03-06T04:52:11;96330.38;;;5.09;80.79
17025;BME280;8629;42.496;25.620;2024-03-06T04:54:38;96322.47;;;5.04;80.46
17025;BME280;8629;42.496;25.620;2024-03-06T04:57:07;96296.09;;;5.09;79.68
17025;BME280;8629;42.496;25.620;2024-03-06T04:59:33;96312.78;;;5.30;78.93
17025;BME280;8629;42.496;25.620;2024-03-06T05:02:00;96321.78;;;5.34;79.19
17025;BME280;8629;42.496;25.620;2024-03-06T05:04:28;96294.53;;;5.13;79.27
17025;BME280;8629;42.496;25.620;2024-03-06T05:06:55;96290.09;;;5.24;79.44
17025;BME280;8629;42.496;25.620;2024-03-06T05:09:22;96327.28;;;5.23;79.76
17025;BME280;8629;42.496;25.620;2024-03-06T05:11:49;96302.44;;;5.19;79.91
17025;BME280;8629;42.496;25.620;2024-03-06T05:14:18;96307.13;;;4.96;80.28
17025;BME280;8629;42.496;25.620;2024-03-06T05:16:45;96346.47;;;5.08;80.76
17025;BME280;8629;42.496;25.620;2024-03-06T05:19:12;96328.09;;;5.23;81.37
17025;BME280;8629;42.496;25.620;2024-03-06T05:21:39;96328.38;;;5.32;81.26
17025;BME280;8629;42.496;25.620;2024-03-06T05:24:06;96319.94;;;5.35;81.84
17025;BME280;8629;42.496;25.620;2024-03-06T05:26:33;96335.47;;;5.26;82.10
17025;BME280;8629;42.496;25.620;2024-03-06T05:29:00;96343.66;;;5.25;82.23
17025;BME280;8629;42.496;25.620;2024-03-06T05:31:29;96330.22;;;5.36;81.56
17025;BME280;8629;42.496;25.620;2024-03-06T05:33:55;96308.84;;;5.33;81.24
17025;BME280;8629;42.496;25.620;2024-03-06T05:36:22;96346.41;;;5.60;81.09
17025;BME280;8629;42.496;25.620;2024-03-06T05:38:49;96347.00;;;5.88;80.86
17025;BME280;8629;42.496;25.620;2024-03-06T05:41:16;96348.09;;;5.92;80.89
17025;BME280;8629;42.496;25.620;2024-03-06T05:43:44;96349.44;;;6.10;80.82
17025;BME280;8629;42.496;25.620;2024-03-06T05:46:11;96283.31;;;5.64;81.32
17025;BME280;8629;42.496;25.620;2024-03-06T05:48:39;96366.09;;;6.26;80.51
17025;BME280;8629;42.496;25.620;2024-03-06T05:51:06;96363.44;;;6.05;81.01
17025;BME280;8629;42.496;25.620;2024-03-06T05:53:36;96354.19;;;5.98;80.96
17025;BME280;8629;42.496;25.620;2024-03-06T05:56:04;96358.16;;;6.16;80.94
17025;BME280;8629;42.496;25.620;2024-03-06T05:58:32;96372.19;;;6.26;81.10
17025;BME280;8629;42.496;25.620;2024-03-06T06:00:59;96372.19;;;6.42;81.14
17025;BME280;8629;42.496;25.620;2024-03-06T06:03:26;96377.22;;;6.48;81.33
17025;BME280;8629;42.496;25.620;2024-03-06T06:05:55;96376.66;;;6.26;81.66
17025;BME280;8629;42.496;25.620;2024-03-06T06:08:22;96327.72;;;5.82;81.84
17025;BME280;8629;42.496;25.620;2024-03-06T06:10:49;96371.91;;;6.12;82.12
17025;BME280;8629;42.496;25.620;2024-03-06T06:13:18;96381.72;;;6.27;81.83
17025;BME280;8629;42.496;25.620;2024-03-06T06:15:44;96384.09;;;6.29;81.36
17025;BME280;8629;42.496;25.620;2024-03-06T06:18:11;96388.56;;;6.38;81.64
17025;BME280;8629;42.496;25.620;2024-03-06T06:20:39;96390.44;;;6.53;80.93
17025;BME280;8629;42.496;25.620;2024-03-06T06:23:08;96375.91;;;6.51;81.10
17025;BME280;8629;42.496;25.620;2024-03-06T06:25:35;96385.16;;;6.64;81.24
17025;BME280;8629;42.496;25.620;2024-03-06T06:28:02;96375.63;;;6.78;80.98
17025;BME280;8629;42.496;25.620;2024-03-06T06:30:29;96379.31;;;6.87;80.75
17025;BME280;8629;42.496;25.620;2024-03-06T06:32:55;96375.59;;;6.98;80.21
17025;BME280;8629;42.496;25.620;2024-03-06T06:35:22;96374.50;;;6.99;79.85
17025;BME280;8629;42.496;25.620;2024-03-06T06:37:50;96380.84;;;7.08;80.11
17025;BME280;8629;42.496;25.620;2024-03-06T06:40:18;96386.91;;;7.14;80.01
17025;BME280;8629;42.496;25.620;2024-03-06T06:42:48;96377.34;;;7.23;79.64
17025;BME280;8629;42.496;25.620;2024-03-06T06:45:16;96372.31;;;7.27;80.09
17025;BME280;8629;42.496;25.620;2024-03-06T06:47:43;96380.75;;;7.44;79.32
17025;BME280;8629;42.496;25.620;2024-03-06T06:50:10;96375.72;;;7.43;78.99
17025;BME280;8629;42.496;25.620;2024-03-06T06:52:37;96374.34;;;7.55;79.16
17025;BME280;8629;42.496;25.620;2024-03-06T06:55:04;96375.94;;;7.56;79.11
17025;BME280;8629;42.496;25.620;2024-03-06T06:57:32;96374.38;;;7.45;79.46
17025;BME280;8629;42.496;25.620;2024-03-06T07:00:00;96353.47;;;7.39;79.48
17025;BME280;8629;42.496;25.620;2024-03-06T07:02:36;96386.72;;;7.75;78.09
17025;BME280;8629;42.496;25.620;2024-03-06T07:05:04;96385.66;;;7.71;77.35
17025;BME280;8629;42.496;25.620;2024-03-06T07:07:31;96391.59;;;7.97;76.52
17025;BME280;8629;42.496;25.620;2024-03-06T07:09:58;96388.94;;;8.02;77.12
17025;BME280;8629;42.496;25.620;2024-03-06T07:12:24;96394.28;;;7.92;77.30
17025;BME280;8629;42.496;25.620;2024-03-06T07:14:53;96402.78;;;7.94;76.95
17025;BME280;8629;42.496;25.620;2024-03-06T07:17:19;96401.28;;;8.22;76.48
17025;BME280;8629;42.496;25.620;2024-03-06T07:19:46;96403.63;;;8.29;75.67
17025;BME280;8629;42.496;25.620;2024-03-06T07:22:13;96407.31;;;8.33;75.79
17025;BME280;8629;42.496;25.620;2024-03-06T07:24:42;96370.19;;;7.94;76.35
17025;BME280;8629;42.496;25.620;2024-03-06T07:27:09;96412.63;;;8.33;76.09
17025;BME280;8629;42.496;25.620;2024-03-06T07:29:36;96414.75;;;8.31;75.15
17025;BME280;8629;42.496;25.620;2024-03-06T07:32:04;96409.13;;;8.43;74.81
17025;BME280;8629;42.496;25.620;2024-03-06T07:34:31;96404.00;;;8.51;73.83
17025;BME280;8629;42.496;25.620;2024-03-06T07:36:58;96416.78;;;8.49;74.74
17025;BME280;8629;42.496;25.620;2024-03-06T07:39:25;96387.91;;;8.43;72.53
17025;BME280;8629;42.496;25.620;2024-03-06T07:41:56;96408.06;;;8.78;73.68
17025;BME280;8629;42.496;25.620;2024-03-06T07:44:26;96403.50;;;9.13;72.06
17025;BME280;8629;42.496;25.620;2024-03-06T07:46:52;96402.72;;;9.36;70.05
17025;BME280;8629;42.496;25.620;2024-03-06T07:49:21;96405.66;;;9.59;68.93
17025;BME280;8629;42.496;25.620;2024-03-06T07:51:48;96408.44;;;9.72;66.94
17025;BME280;8629;42.496;25.620;2024-03-06T07:54:15;96412.91;;;9.96;65.35
17025;BME280;8629;42.496;25.620;2024-03-06T07:56:41;96411.47;;;9.85;66.38
17025;BME280;8629;42.496;25.620;2024-03-06T07:59:08;96403.03;;;9.77;66.06
17025;BME280;8629;42.496;25.620;2024-03-06T08:01:37;96411.13;;;9.91;65.16
17025;BME280;8629;42.496;25.620;2024-03-06T08:04:04;96413.38;;;9.79;64.82
17025;BME280;8629;42.496;25.620;2024-03-06T08:06:33;96411.63;;;9.93;64.91
17025;BME280;8629;42.496;25.620;2024-03-06T08:09:02;96416.78;;;9.85;64.78
17025;BME280;8629;42.496;25.620;2024-03-06T08:11:29;96426.44;;;9.75;64.39
17025;BME280;8629;42.496;25.620;2024-03-06T08:13:57;96419.78;;;9.78;64.25
17025;BME280;8629;42.496;25.620;2024-03-06T08:16:24;96427.50;;;9.98;64.38
17025;BME280;8629;42.496;25.620;2024-03-06T08:18:51;96444.69;;;10.06;63.85
17025;BME280;8629;42.496;25.620;2024-03-06T08:21:18;96422.50;;;10.16;62.81
17025;BME280;8629;42.496;25.620;2024-03-06T08:23:47;96428.81;;;10.20;62.81
17025;BME280;8629;42.496;25.620;2024-03-06T08:26:14;96417.88;;;9.84;63.19
17025;BME280;8629;42.496;25.620;2024-03-06T08:28:41;96424.41;;;9.91;63.14
17025;BME280;8629;42.496;25.620;2024-03-06T08:31:08;96423.38;;;9.87;63.00
17025;BME280;8629;42.496;25.620;2024-03-06T08:33:35;96427.66;;;10.07;63.56
17025;BME280;8629;42.496;25.620;2024-03-06T08:36:01;96427.06;;;10.34;62.10
17025;BME280;8629;42.496;25.620;2024-03-06T08:38:28;96426.31;;;10.28;62.90
17025;BME280;8629;42.496;25.620;2024-03-06T08:40:56;96425.53;;;10.28;63.24
17025;BME280;8629;42.496;25.620;2024-03-06T08:43:23;96436.19;;;9.85;63.49
17025;BME280;8629;42.496;25.620;2024-03-06T08:45:51;96435.63;;;9.64;64.48
17025;BME280;8629;42.496;25.620;2024-03-06T08:48:18;96424.47;;;9.86;64.72
17025;BME280;8629;42.496;25.620;2024-03-06T08:50:45;96403.31;;;9.57;64.48
17025;BME280;8629;42.496;25.620;2024-03-06T08:53:12;96424.41;;;9.91;64.60
17025;BME280;8629;42.496;25.620;2024-03-06T08:55:40;96429.66;;;9.96;64.52
17025;BME280;8629;42.496;25.620;2024-03-06T08:58:09;96429.81;;;10.24;63.42
17025;BME280;8629;42.496;25.620;2024-03-06T09:00:35;96423.91;;;10.84;61.38
17025;BME280;8629;42.496;25.620;2024-03-06T09:03:03;96427.31;;;10.51;60.74
17025;BME280;8629;42.496;25.620;2024-03-06T09:05:30;96432.78;;;11.12;60.11
17025;BME280;8629;42.496;25.620;2024-03-06T09:07:57;96430.34;;;11.57;58.20
17025;BME280;8629;42.496;25.620;2024-03-06T09:10:24;96426.28;;;11.32;58.34
17025;BME280;8629;42.496;25.620;2024-03-06T09:12:51;96434.44;;;11.08;59.17
17025;BME280;8629;42.496;25.620;2024-03-06T09:15:19;96440.41;;;10.99;60.04
17025;BME280;8629;42.496;25.620;2024-03-06T09:17:46;96431.75;;;10.75;60.06
17025;BME280;8629;42.496;25.620;2024-03-06T09:20:13;96392.88;;;10.41;60.00
17025;BME280;8629;42.496;25.620;2024-03-06T09:22:42;96444.19;;;10.80;60.22
17025;BME280;8629;42.496;25.620;2024-03-06T09:25:09;96442.81;;;10.49;60.43
17025;BME280;8629;42.496;25.620;2024-03-06T09:27:39;96439.63;;;10.47;60.26
17025;BME280;8629;42.496;25.620;2024-03-06T09:30:06;96437.31;;;10.60;58.71
17025;BME280;8629;42.496;25.620;2024-03-06T09:32:35;96441.06;;;11.24;57.76
17025;BME280;8629;42.496;25.620;2024-03-06T09:35:02;96438.38;;;12.34;54.73
17025;BME280;8629;42.496;25.620;2024-03-06T09:37:30;96427.44;;;13.03;53.13
17025;BME280;8629;42.496;25.620;2024-03-06T09:39:57;96434.13;;;12.92;51.57
17025;BME280;8629;42.496;25.620;2024-03-06T09:42:24;96426.19;;;12.78;51.49
17025;BME280;8629;42.496;25.620;2024-03-06T09:44:51;96421.84;;;12.23;53.42
17025;BME280;8629;42.496;25.620;2024-03-06T09:47:21;96412.38;;;12.04;54.07
17025;BME280;8629;42.496;25.620;2024-03-06T09:49:52;96395.91;;;11.74;54.86
17025;BME280;8629;42.496;25.620;2024-03-06T09:52:20;96415.81;;;13.61;50.55
17025;BME280;8629;42.496;25.620;2024-03-06T09:54:47;96418.97;;;14.38;47.08
17025;BME280;8629;42.496;25.620;2024-03-06T09:57:14;96421.03;;;14.67;46.76
17025;BME280;8629;42.496;25.620;2024-03-06T09:59:42;96422.59;;;13.67;48.96
17025;BME280;8629;42.496;25.620;2024-03-06T10:02:21;96404.91;;;12.28;52.30
17025;BME280;8629;42.496;25.620;2024-03-06T10:04:54;96416.72;;;11.99;53.29
17025;BME280;8629;42.496;25.620;2024-03-06T10:07:20;96407.22;;;11.80;53.77
17025;BME280;8629;42.496;25.620;2024-03-06T10:09:47;96421.00;;;13.27;49.69
17025;BME280;8629;42.496;25.620;2024-03-06T10:12:17;96427.66;;;14.70;45.82
17025;BME280;8629;42.496;25.620;2024-03-06T10:14:49;96433.50;;;15.45;43.22
17025;BME280;8629;42.496;25.620;2024-03-06T10:17:19;96416.94;;;13.29;48.69
17025;BME280;8629;42.496;25.620;2024-03-06T10:19:48;96421.84;;;13.13;49.46
17025;BME280;8629;42.496;25.620;2024-03-06T10:22:19;96400.69;;;12.13;51.71
17025;BME280;8629;42.496;25.620;2024-03-06T10:24:46;96422.25;;;12.76;51.79
17025;BME280;8629;42.496;25.620;2024-03-06T10:27:15;96422.78;;;12.86;49.45
17025;BME280;8629;42.496;25.620;2024-03-06T10:29:42;96411.19;;;12.91;48.79
17025;BME280;8629;42.496;25.620;2024-03-06T10:32:09;96392.13;;;12.61;49.76
17025;BME280;8629;42.496;25.620;2024-03-06T10:34:37;96418.00;;;14.42;46.51
17025;BME280;8629;42.496;25.620;2024-03-06T10:37:06;96384.75;;;14.09;47.00
17025;BME280;8629;42.496;25.620;2024-03-06T10:39:35;96411.84;;;14.25;45.24
17025;BME280;8629;42.496;25.620;2024-03-06T10:42:07;96327.69;;;13.48;45.55
17025;BME280;8629;42.496;25.620;2024-03-06T10:44:34;96410.53;;;13.79;47.14
17025;BME280;8629;42.496;25.620;2024-03-06T10:47:05;96402.75;;;13.60;48.15
17025;BME280;8629;42.496;25.620;2024-03-06T10:49:32;96401.72;;;13.16;48.69
17025;BME280;8629;42.496;25.620;2024-03-06T10:52:00;96405.25;;;12.94;49.85
17025;BME280;8629;42.496;25.620;2024-03-06T10:54:28;96404.81;;;12.78;48.59
17025;BME280;8629;42.496;25.620;2024-03-06T10:56:57;96393.72;;;12.62;49.15
17025;BME280;8629;42.496;25.620;2024-03-06T10:59:26;96383.44;;;12.33;49.71
17025;BME280;8629;42.496;25.620;2024-03-06T11:01:54;96391.19;;;12.21;50.76
17025;BME280;8629;42.496;25.620;2024-03-06T11:04:24;96396.94;;;12.14;50.99
17025;BME280;8629;42.496;25.620;2024-03-06T11:06:54;96389.78;;;11.87;52.45
17025;BME280;8629;42.496;25.620;2024-03-06T11:09:21;96382.75;;;11.78;52.10
17025;BME280;8629;42.496;25.620;2024-03-06T11:11:48;96390.16;;;11.67;53.60
17025;BME280;8629;42.496;25.620;2024-03-06T11:14:18;96387.09;;;11.73;54.00
17025;BME280;8629;42.496;25.620;2024-03-06T11:16:58;96385.41;;;11.91;53.32
17025;BME280;8629;42.496;25.620;2024-03-06T11:19:26;96381.97;;;11.63;52.98
17025;BME280;8629;42.496;25.620;2024-03-06T11:21:53;96385.72;;;11.48;53.72
17025;BME280;8629;42.496;25.620;2024-03-06T11:24:21;96388.97;;;11.32;54.50
17025;BME280;8629;42.496;25.620;2024-03-06T11:26:50;96384.91;;;11.34;54.33
17025;BME280;8629;42.496;25.620;2024-03-06T11:29:23;96382.94;;;11.26;55.30
17025;BME280;8629;42.496;25.620;2024-03-06T11:32:04;96390.16;;;11.25;55.05
17025;BME280;8629;42.496;25.620;2024-03-06T11:34:33;96390.22;;;11.07;56.38
17025;BME280;8629;42.496;25.620;2024-03-06T11:37:03;96382.25;;;11.20;56.41
17025;BME280;8629;42.496;25.620;2024-03-06T11:39:36;96380.66;;;11.06;57.23
17025;BME280;8629;42.496;25.620;2024-03-06T11:42:04;96378.28;;;11.04;59.10
17025;BME280;8629;42.496;25.620;2024-03-06T11:44:35;96382.09;;;11.31;59.61
17025;BME280;8629;42.496;25.620;2024-03-06T11:47:04;96370.81;;;11.75;58.16
17025;BME280;8629;42.496;25.620;2024-03-06T11:49:33;96376.91;;;11.75;55.39
17025;BME280;8629;42.496;25.620;2024-03-06T11:52:02;96374.72;;;12.05;55.27
17025;BME280;8629;42.496;25.620;2024-03-06T11:54:30;96368.88;;;12.62;51.54
17025;BME280;8629;42.496;25.620;2024-03-06T11:56:59;96370.22;;;13.04;49.82
17025;BME280;8629;42.496;25.620;2024-03-06T11:59:27;96368.69;;;13.43;47.34
17025;BME280;8629;42.496;25.620;2024-03-06T12:01:57;96367.88;;;13.25;48.54
17025;BME280;8629;42.496;25.620;2024-03-06T12:04:29;96371.84;;;12.83;49.77
17025;BME280;8629;42.496;25.620;2024-03-06T12:06:57;96372.59;;;12.52;50.43
17025;BME280;8629;42.496;25.620;2024-03-06T12:09:24;96374.47;;;12.52;50.36
17025;BME280;8629;42.496;25.620;2024-03-06T12:11:52;96367.94;;;12.35;50.47
17025;BME280;8629;42.496;25.620;2024-03-06T12:14:19;96368.41;;;12.01;51.95
17025;BME280;8629;42.496;25.620;2024-03-06T12:16:56;96364.50;;;12.66;51.13
17025;BME280;8629;42.496;25.620;2024-03-06T12:19:25;96339.03;;;12.37;49.77
17025;BME280;8629;42.496;25.620;2024-03-06T12:21:52;96352.66;;;12.81;49.11
17025;BME280;8629;42.496;25.620;2024-03-06T12:24:19;96366.13;;;13.69;48.53
17025;BME280;8629;42.496;25.620;2024-03-06T12:26:46;96367.28;;;14.20;45.98
17025;BME280;8629;42.496;25.620;2024-03-06T12:29:18;96360.22;;;14.33;44.58
17025;BME280;8629;42.496;25.620;2024-03-06T12:31:45;96363.97;;;13.97;44.55
17025;BME280;8629;42.496;25.620;2024-03-06T12:34:15;96356.78;;;13.18;46.11
17025;BME280;8629;42.496;25.620;2024-03-06T12:36:42;96366.06;;;13.52;45.53
17025;BME280;8629;42.496;25.620;2024-03-06T12:39:09;96366.09;;;13.60;45.26
17025;BME280;8629;42.496;25.620;2024-03-06T12:41:38;96360.47;;;13.00;46.40
17025;BME280;8629;42.496;25.620;2024-03-06T12:44:05;96363.44;;;13.78;46.00
17025;BME280;8629;42.496;25.620;2024-03-06T12:46:33;96363.50;;;14.12;44.00
17025;BME280;8629;42.496;25.620;2024-03-06T12:49:00;96354.38;;;14.39;42.77
17025;BME280;8629;42.496;25.620;2024-03-06T12:51:28;96364.78;;;14.67;43.88
17025;BME280;8629;42.496;25.620;2024-03-06T12:53:54;96364.47;;;14.51;43.02
17025;BME280;8629;42.496;25.620;2024-03-06T12:56:21;96361.44;;;14.44;43.24
17025;BME280;8629;42.496;25.620;2024-03-06T12:58:50;96374.06;;;14.87;42.21
17025;BME280;8629;42.496;25.620;2024-03-06T13:01:17;96363.38;;;14.70;41.34
17025;BME280;8629;42.496;25.620;2024-03-06T13:03:45;96376.25;;;14.15;42.57
17025;BME280;8629;42.496;25.620;2024-03-06T13:06:12;96371.19;;;13.97;44.17
17025;BME280;8629;42.496;25.620;2024-03-06T13:08:40;96363.88;;;13.54;44.74
17025;BME280;8629;42.496;25.620;2024-03-06T13:11:07;96374.03;;;13.43;45.23